createdAt,value
2019-04-26T00:02:24.359Z,59.88
2019-04-26T00:04:59.653Z,61.01
2019-04-26T00:07:32.817Z,61.47
2019-04-26T00:10:11.845Z,62.31
2019-04-26T00:12:52.564Z,62.73
2019-04-26T00:15:43.397Z,60.34
2019-04-26T00:18:16.770Z,50.76
2019-04-26T00:20:49.640Z,50.77
2019-04-26T00:23:22.635Z,53.18
2019-04-26T00:25:55.874Z,55.10
2019-04-26T00:28:28.943Z,56.38
2019-04-26T00:31:01.831Z,57.93
2019-04-26T00:33:34.764Z,58.91
2019-04-26T00:36:07.643Z,59.80
2019-04-26T00:38:40.560Z,60.49
2019-04-26T00:41:14.120Z,61.06
2019-04-26T00:43:47.261Z,61.83
2019-04-26T00:46:20.937Z,62.51
2019-04-26T00:48:56.000Z,61.13
2019-04-26T00:51:29.105Z,51.34
2019-04-26T00:54:02.303Z,49.71
2019-04-26T00:56:36.438Z,52.34
2019-04-26T00:59:10.344Z,54.56
2019-04-26T01:01:47.075Z,56.04
2019-04-26T01:04:20.903Z,56.98
2019-04-26T01:06:55.457Z,58.66
2019-04-26T01:09:28.395Z,59.64
2019-04-26T01:12:01.250Z,60.53
2019-04-26T01:14:34.220Z,61.15
2019-04-26T01:17:07.173Z,61.95
2019-04-26T01:19:42.747Z,62.65
2019-04-26T01:22:23.333Z,61.61
2019-04-26T01:24:57.879Z,50.89
2019-04-26T01:27:33.146Z,52.66
2019-04-26T01:30:09.700Z,55.02
2019-04-26T01:32:45.010Z,56.94
2019-04-26T01:35:18.988Z,58.96
2019-04-26T01:37:53.902Z,59.69
2019-04-26T01:40:28.519Z,60.54
2019-04-26T01:43:21.680Z,61.47
2019-04-26T01:46:04.146Z,62.38
2019-04-26T01:48:49.405Z,61.54
2019-04-26T01:51:58.710Z,51.73
2019-04-26T01:54:39.993Z,52.78
2019-04-26T01:57:14.311Z,55.24
2019-04-26T01:59:53.566Z,56.97
2019-04-26T02:02:43.686Z,58.46
2019-04-26T02:05:23.974Z,59.35
2019-04-26T02:07:57.492Z,60.32
2019-04-26T02:10:31.126Z,60.99
2019-04-26T02:13:04.043Z,62.07
2019-04-26T02:15:37.415Z,62.76
2019-04-26T02:18:10.319Z,62.33
2019-04-26T02:21:27.874Z,53.57
2019-04-26T02:24:26.611Z,50.69
2019-04-26T02:27:01.427Z,53.18
2019-04-26T02:29:34.763Z,55.34
2019-04-26T02:32:09.315Z,56.78
2019-04-26T02:34:42.226Z,58.07
2019-04-26T02:37:16.720Z,59.49
2019-04-26T02:39:50.338Z,60.24
2019-04-26T02:42:40.807Z,60.99
2019-04-26T02:46:00.519Z,62.37
2019-04-26T02:49:02.920Z,59.68
2019-04-26T02:51:41.784Z,53.05
2019-04-26T02:54:27.897Z,54.83
2019-04-26T02:57:02.938Z,56.86
2019-04-26T02:59:50.278Z,58.55
2019-04-26T03:02:30.281Z,59.93
2019-04-26T03:05:08.825Z,60.76
2019-04-26T03:08:13.445Z,62.37
2019-04-26T03:10:52.605Z,59.80
2019-04-26T03:13:51.299Z,53.55
2019-04-26T03:16:50.102Z,55.14
2019-04-26T03:19:39.659Z,57.34
2019-04-26T03:23:10.136Z,59.13
2019-04-26T03:26:38.958Z,60.29
2019-04-26T03:29:43.664Z,61.85
2019-04-26T03:33:08.778Z,64.28
2019-04-26T03:36:47.011Z,53.90
2019-04-26T03:39:37.142Z,51.59
2019-04-26T03:42:44.060Z,54.62
2019-04-26T03:45:29.206Z,57.03
2019-04-26T03:48:45.051Z,59.13
2019-04-26T03:51:35.735Z,60.67
2019-04-26T03:54:17.882Z,62.21
2019-04-26T03:57:14.929Z,63.04
2019-04-26T04:00:28.453Z,58.71
2019-04-26T04:03:30.277Z,53.42
2019-04-26T04:06:05.824Z,56.22
2019-04-26T04:09:07.845Z,58.17
2019-04-26T04:12:11.117Z,59.75
2019-04-26T04:15:09.214Z,60.71
2019-04-26T04:17:58.586Z,62.00
2019-04-26T04:21:48.026Z,63.93
2019-04-26T04:24:39.053Z,53.08
2019-04-26T04:27:30.014Z,51.53
2019-04-26T04:30:28.852Z,53.91
2019-04-26T04:33:33.409Z,55.93
2019-04-26T04:36:23.041Z,57.98
2019-04-26T04:39:22.504Z,58.79
2019-04-26T04:42:54.233Z,59.53
2019-04-26T04:46:21.996Z,60.52
2019-04-26T04:49:38.257Z,61.68
2019-04-26T04:52:38.108Z,62.29
2019-04-26T04:55:31.228Z,60.34
2019-04-26T04:58:16.728Z,51.16
2019-04-26T05:01:42.770Z,52.13
2019-04-26T05:04:32.273Z,54.74
2019-04-26T05:07:43.937Z,56.12
2019-04-26T05:10:38.635Z,57.67
2019-04-26T05:13:34.768Z,58.66
2019-04-26T05:16:54.597Z,59.98
2019-04-26T05:20:15.163Z,60.42
2019-04-26T05:24:39.970Z,61.23
2019-04-26T05:27:50.898Z,62.19
2019-04-26T05:31:09.198Z,62.83
2019-04-26T05:34:14.621Z,58.89
2019-04-26T05:37:44.926Z,52.46
2019-04-26T05:40:59.888Z,54.48
2019-04-26T05:44:22.773Z,56.39
2019-04-26T05:48:05.262Z,57.80
2019-04-26T05:51:51.956Z,59.03
2019-04-26T05:55:02.658Z,59.96
2019-04-26T05:58:12.460Z,60.84
2019-04-26T06:01:39.046Z,61.13
2019-04-26T06:04:52.354Z,61.80
2019-04-26T06:08:31.486Z,62.45
2019-04-26T06:11:12.156Z,58.23
2019-04-26T06:14:51.429Z,52.23
2019-04-26T06:18:12.111Z,52.09
2019-04-26T06:21:02.169Z,54.00
2019-04-26T06:24:13.739Z,54.73
2019-04-26T06:27:49.340Z,54.84
2019-04-26T06:30:57.920Z,55.84
2019-04-26T06:33:48.460Z,55.64
2019-04-26T06:36:44.087Z,55.12
2019-04-26T06:39:42.602Z,55.80
2019-04-26T06:43:10.453Z,55.34
2019-04-26T06:46:40.661Z,55.59
2019-04-26T06:49:58.613Z,55.01
2019-04-26T06:52:35.534Z,55.21
2019-04-26T06:55:35.741Z,54.65
2019-04-26T06:59:36.803Z,54.91
2019-04-26T07:02:40.618Z,53.06
2019-04-26T07:05:25.250Z,53.26
2019-04-26T07:08:38.486Z,52.29
2019-04-26T07:12:13.616Z,52.72
2019-04-26T07:15:52.359Z,51.20
2019-04-26T07:18:53.981Z,50.70
2019-04-26T07:22:20.929Z,50.36
2019-04-26T07:26:05.913Z,48.97
2019-04-26T07:29:34.796Z,46.54
2019-04-26T07:32:37.000Z,46.70
2019-04-26T07:35:27.013Z,45.53
2019-04-26T07:39:16.681Z,45.52
2019-04-26T07:42:36.507Z,42.03
2019-04-26T07:46:03.959Z,41.92
2019-04-26T07:49:46.613Z,41.32
2019-04-26T07:53:17.965Z,41.81
2019-04-26T07:56:34.549Z,39.98
2019-04-26T08:00:04.256Z,40.72
2019-04-26T08:03:00.747Z,40.42
2019-04-26T08:05:57.833Z,38.16
2019-04-26T08:08:56.735Z,38.75
2019-04-26T08:11:44.542Z,37.98
2019-04-26T08:14:42.443Z,37.44
2019-04-26T08:17:44.143Z,36.76
2019-04-26T08:20:53.158Z,37.10
2019-04-26T08:23:41.310Z,35.69
2019-04-26T08:26:17.109Z,35.67
2019-04-26T08:28:56.591Z,35.58
2019-04-26T08:31:31.755Z,34.40
2019-04-26T08:34:10.103Z,33.38
2019-04-26T08:36:51.936Z,32.93
2019-04-26T08:39:44.545Z,32.60
2019-04-26T08:42:11.898Z,33.29
2019-04-26T08:44:57.817Z,32.97
2019-04-26T08:47:51.217Z,33.37
2019-04-26T08:50:31.935Z,33.40
2019-04-26T08:53:06.635Z,33.68
2019-04-26T08:55:42.770Z,33.12
2019-04-26T08:58:19.494Z,32.67
2019-04-26T09:01:04.920Z,31.84
2019-04-26T09:03:55.059Z,31.94
2019-04-26T09:06:54.824Z,29.40
2019-04-26T09:09:32.359Z,29.31
2019-04-26T09:12:22.270Z,28.99
2019-04-26T09:14:52.285Z,29.94
2019-04-26T09:17:27.667Z,28.91
2019-04-26T09:20:06.960Z,29.50
2019-04-26T09:22:56.676Z,28.70
2019-04-26T09:25:34.480Z,29.45
2019-04-26T09:28:26.872Z,29.62
2019-04-26T09:31:23.075Z,29.03
2019-04-26T09:34:01.040Z,28.21
2019-04-26T09:36:34.285Z,28.21
2019-04-26T09:39:10.257Z,28.43
2019-04-26T09:41:43.280Z,28.87
2019-04-26T09:44:33.909Z,29.73
2019-04-26T09:47:28.999Z,29.38
2019-04-26T09:50:29.546Z,29.48
2019-04-26T09:53:02.534Z,29.36
2019-04-26T09:55:35.968Z,28.86
2019-04-26T09:58:09.267Z,28.79
2019-04-26T10:00:43.986Z,29.21
2019-04-26T10:03:17.018Z,29.03
2019-04-26T10:05:52.045Z,29.43
2019-04-26T10:08:24.556Z,29.57
2019-04-26T10:10:58.544Z,28.06
2019-04-26T10:13:56.354Z,28.71
2019-04-26T10:16:50.703Z,29.52
2019-04-26T10:19:34.376Z,29.09
2019-04-26T10:22:07.547Z,28.66
2019-04-26T10:24:40.449Z,29.09
2019-04-26T10:27:13.300Z,28.71
2019-04-26T10:29:46.181Z,28.74
2019-04-26T10:32:21.652Z,28.52
2019-04-26T10:34:53.852Z,28.10
2019-04-26T10:37:38.917Z,28.82
2019-04-26T10:40:02.602Z,29.43
2019-04-26T10:42:37.272Z,30.55
2019-04-26T10:45:14.647Z,29.85
2019-04-26T10:47:46.669Z,29.19
2019-04-26T10:50:20.094Z,29.49
2019-04-26T10:52:59.563Z,28.83
2019-04-26T10:56:03.246Z,28.52
2019-04-26T10:58:43.603Z,28.59
2019-04-26T11:01:18.108Z,29.48
2019-04-26T11:03:51.222Z,28.98
2019-04-26T11:06:27.835Z,28.92
2019-04-26T11:09:00.275Z,29.40
2019-04-26T11:11:35.239Z,29.83
2019-04-26T11:14:08.422Z,29.09
2019-04-26T11:16:42.270Z,30.13
2019-04-26T11:19:16.325Z,29.00
2019-04-26T11:21:51.064Z,28.96
2019-04-26T11:24:23.990Z,29.02
2019-04-26T11:26:56.909Z,30.00
2019-04-26T11:29:30.221Z,28.32
2019-04-26T11:32:08.006Z,27.75
2019-04-26T11:34:42.917Z,29.68
2019-04-26T11:37:17.921Z,28.36
2019-04-26T11:39:50.438Z,27.77
2019-04-26T11:42:23.413Z,27.69
2019-04-26T11:45:05.758Z,28.35
2019-04-26T11:47:32.128Z,29.80
2019-04-26T11:50:05.254Z,29.09
2019-04-26T11:52:38.501Z,28.97
2019-04-26T11:55:14.797Z,28.70
2019-04-26T11:57:47.530Z,28.62
2019-04-26T12:00:29.478Z,28.16
2019-04-26T12:03:02.426Z,28.45
2019-04-26T12:05:54.036Z,28.51
2019-04-26T12:08:45.859Z,28.61
2019-04-26T12:11:25.790Z,28.69
2019-04-26T12:13:55.332Z,28.01
2019-04-26T12:16:28.431Z,27.79
2019-04-26T12:19:01.459Z,29.27
2019-04-26T12:21:35.103Z,27.86
2019-04-26T12:24:08.419Z,27.42
2019-04-26T12:26:42.979Z,27.79
2019-04-26T12:29:16.145Z,25.96
2019-04-26T12:31:51.559Z,27.14
2019-04-26T12:34:24.697Z,27.35
2019-04-26T12:36:57.739Z,26.93
2019-04-26T12:39:32.321Z,26.49
2019-04-26T12:42:08.277Z,26.76
2019-04-26T12:44:49.826Z,27.00
2019-04-26T12:47:48.671Z,26.72
2019-04-26T12:50:23.028Z,26.22
2019-04-26T12:52:57.401Z,26.55
2019-04-26T12:55:30.795Z,26.34
2019-04-26T12:58:04.346Z,27.18
2019-04-26T13:00:38.813Z,25.64
2019-04-26T13:03:20.053Z,25.93
2019-04-26T13:05:49.710Z,25.71
2019-04-26T13:08:21.546Z,25.53
2019-04-26T13:11:15.405Z,26.90
2019-04-26T13:13:54.051Z,26.69
2019-04-26T13:16:57.214Z,27.39
2019-04-26T13:19:29.495Z,26.12
2019-04-26T13:22:02.593Z,25.93
2019-04-26T13:24:39.472Z,26.29
2019-04-26T13:27:11.000Z,27.07
2019-04-26T13:29:44.759Z,27.07
2019-04-26T13:32:20.647Z,26.27
2019-04-26T13:34:53.720Z,25.55
2019-04-26T13:37:26.821Z,25.90
2019-04-26T13:39:59.807Z,28.16
2019-04-26T13:42:32.744Z,26.28
2019-04-26T13:45:31.268Z,26.94
2019-04-26T13:48:29.563Z,28.22
2019-04-26T13:51:07.868Z,27.24
2019-04-26T13:53:42.179Z,28.82
2019-04-26T13:56:17.338Z,29.23
2019-04-26T13:58:54.235Z,27.59
2019-04-26T14:01:26.518Z,29.53
2019-04-26T14:04:02.441Z,28.38
2019-04-26T14:06:40.686Z,27.64
2019-04-26T14:09:14.070Z,27.97
2019-04-26T14:11:51.022Z,27.63
2019-04-26T14:14:24.259Z,27.33
2019-04-26T14:16:57.331Z,26.94
2019-04-26T14:19:30.562Z,27.05
2019-04-26T14:22:07.052Z,27.27
2019-04-26T14:24:58.684Z,27.36
2019-04-26T14:27:50.043Z,28.15
2019-04-26T14:30:22.298Z,28.97
2019-04-26T14:32:57.258Z,27.81
2019-04-26T14:35:30.932Z,27.97
2019-04-26T14:38:04.184Z,28.35
2019-04-26T14:40:39.262Z,27.83
2019-04-26T14:43:12.314Z,28.12
2019-04-26T14:45:55.630Z,28.04
2019-04-26T14:48:29.330Z,28.43
2019-04-26T14:51:07.221Z,28.31
2019-04-26T14:53:32.212Z,28.13
2019-04-26T14:56:05.314Z,28.18
2019-04-26T14:58:39.314Z,28.75
2019-04-26T15:01:17.934Z,28.31
2019-04-26T15:04:09.610Z,28.25
2019-04-26T15:06:44.661Z,28.03
2019-04-26T15:09:20.106Z,28.22
2019-04-26T15:11:57.796Z,28.35
2019-04-26T15:14:29.082Z,28.20
2019-04-26T15:17:02.740Z,28.46
2019-04-26T15:19:35.706Z,28.51
2019-04-26T15:22:10.499Z,28.20
2019-04-26T15:24:43.363Z,28.27
2019-04-26T15:27:16.228Z,28.04
2019-04-26T15:29:49.072Z,28.23
2019-04-26T15:32:23.982Z,28.07
2019-04-26T15:34:58.564Z,28.21
2019-04-26T15:37:32.228Z,28.34
2019-04-26T15:40:16.563Z,29.77
2019-04-26T15:43:02.906Z,30.19
2019-04-26T15:45:56.296Z,29.72
2019-04-26T15:48:50.324Z,29.17
2019-04-26T15:51:27.437Z,29.46
2019-04-26T15:53:59.951Z,29.92
2019-04-26T15:56:32.881Z,29.12
2019-04-26T15:59:05.808Z,29.19
2019-04-26T16:01:41.890Z,29.75
2019-04-26T16:04:16.936Z,28.93
2019-04-26T16:06:47.988Z,29.12
2019-04-26T16:09:22.817Z,28.96
2019-04-26T16:11:56.573Z,29.14
2019-04-26T16:14:31.074Z,29.54
2019-04-26T16:17:06.615Z,29.27
2019-04-26T16:19:39.244Z,29.23
2019-04-26T16:22:12.319Z,29.40
2019-04-26T16:24:46.153Z,29.99
2019-04-26T16:27:19.142Z,29.65
2019-04-26T16:30:03.052Z,30.07
2019-04-26T16:32:47.404Z,29.87
2019-04-26T16:35:25.112Z,30.22
2019-04-26T16:37:59.826Z,30.99
2019-04-26T16:40:30.105Z,30.89
2019-04-26T16:43:04.211Z,30.86
2019-04-26T16:45:41.209Z,31.22
2019-04-26T16:48:12.910Z,31.52
2019-04-26T16:50:46.692Z,31.59
2019-04-26T16:53:37.762Z,31.67
2019-04-26T16:55:54.629Z,31.66
2019-04-26T16:58:30.898Z,32.12
2019-04-26T17:01:04.573Z,32.49
2019-04-26T17:03:43.952Z,32.28
2019-04-26T17:06:14.278Z,32.43
2019-04-26T17:08:49.891Z,32.92
2019-04-26T17:11:22.965Z,32.71
2019-04-26T17:13:57.011Z,32.86
2019-04-26T17:16:34.709Z,32.90
2019-04-26T17:19:05.784Z,33.16
2019-04-26T17:21:45.275Z,33.27
2019-04-26T17:24:46.247Z,33.42
2019-04-26T17:27:18.598Z,33.56
2019-04-26T17:29:52.795Z,34.13
2019-04-26T17:32:26.339Z,33.92
2019-04-26T17:35:03.585Z,34.01
2019-04-26T17:37:34.204Z,34.19
2019-04-26T17:40:07.610Z,34.25
2019-04-26T17:42:41.031Z,34.42
2019-04-26T17:45:14.308Z,34.47
2019-04-26T17:47:47.556Z,34.70
2019-04-26T17:50:20.795Z,34.71
2019-04-26T17:52:53.799Z,34.88
2019-04-26T17:55:31.153Z,34.98
2019-04-26T17:58:12.460Z,35.10
2019-04-26T18:00:45.695Z,35.30
2019-04-26T18:03:18.040Z,35.48
2019-04-26T18:05:57.193Z,35.74
2019-04-26T18:08:41.161Z,36.01
2019-04-26T18:11:01.171Z,36.17
2019-04-26T18:13:35.839Z,36.36
2019-04-26T18:16:08.974Z,36.44
2019-04-26T18:19:08.149Z,36.61
2019-04-26T18:22:05.990Z,37.00
2019-04-26T18:24:39.248Z,37.60
2019-04-26T18:27:12.409Z,38.08
2019-04-26T18:29:45.559Z,38.63
2019-04-26T18:32:18.771Z,39.08
2019-04-26T18:34:53.502Z,39.49
2019-04-26T18:37:30.334Z,39.85
2019-04-26T18:40:06.203Z,40.25
2019-04-26T18:42:44.595Z,40.52
2019-04-26T18:45:25.817Z,40.73
2019-04-26T18:47:56.315Z,40.93
2019-04-26T18:50:28.539Z,41.01
2019-04-26T18:53:30.555Z,41.23
2019-04-26T18:56:04.312Z,41.64
2019-04-26T18:58:38.446Z,42.12
2019-04-26T19:01:13.699Z,42.46
2019-04-26T19:03:49.306Z,42.86
2019-04-26T19:06:30.992Z,43.22
2019-04-26T19:08:57.579Z,43.25
2019-04-26T19:11:32.401Z,43.52
2019-04-26T19:14:23.749Z,43.87
2019-04-26T19:17:15.066Z,43.97
2019-04-26T19:19:58.505Z,44.08
2019-04-26T19:22:32.227Z,44.43
2019-04-26T19:25:18.956Z,44.64
2019-04-26T19:27:49.611Z,44.80
2019-04-26T19:30:19.193Z,44.65
2019-04-26T19:32:53.932Z,44.81
2019-04-26T19:35:27.271Z,44.89
2019-04-26T19:38:00.258Z,44.93
2019-04-26T19:40:34.340Z,44.92
2019-04-26T19:43:09.405Z,45.00
2019-04-26T19:46:09.534Z,45.19
2019-04-26T19:49:00.408Z,45.51
2019-04-26T19:51:56.694Z,45.66
2019-04-26T19:54:41.816Z,45.97
2019-04-26T19:57:24.451Z,46.06
2019-04-26T19:59:57.511Z,46.30
2019-04-26T20:02:35.889Z,46.50
2019-04-26T20:05:06.670Z,46.78
2019-04-26T20:07:41.699Z,46.76
2019-04-26T20:10:15.307Z,46.84
2019-04-26T20:12:48.554Z,46.99
2019-04-26T20:15:26.526Z,47.16
2019-04-26T20:18:00.198Z,47.22
2019-04-26T20:20:35.878Z,47.40
2019-04-26T20:23:08.030Z,47.21
2019-04-26T20:25:41.621Z,47.63
2019-04-26T20:28:14.745Z,47.78
2019-04-26T20:31:18.852Z,47.60
2019-04-26T20:33:53.178Z,47.53
2019-04-26T20:36:26.477Z,47.95
2019-04-26T20:39:01.418Z,48.19
2019-04-26T20:41:36.078Z,48.27
2019-04-26T20:44:10.104Z,48.33
2019-04-26T20:46:43.499Z,48.52
2019-04-26T20:49:19.182Z,48.91
2019-04-26T20:51:53.149Z,48.98
2019-04-26T20:54:26.649Z,48.75
2019-04-26T20:56:59.718Z,48.95
2019-04-26T20:59:32.938Z,48.96
2019-04-26T21:02:07.978Z,49.34
2019-04-26T21:04:44.253Z,49.41
2019-04-26T21:07:16.481Z,49.08
2019-04-26T21:09:49.635Z,49.16
2019-04-26T21:12:23.203Z,49.92
2019-04-26T21:14:56.478Z,49.64
2019-04-26T21:17:29.581Z,50.17
2019-04-26T21:20:02.940Z,50.64
2019-04-26T21:22:36.201Z,49.79
2019-04-26T21:25:38.357Z,49.38
2019-04-26T21:28:33.030Z,49.65
2019-04-26T21:31:15.427Z,49.47
2019-04-26T21:34:12.509Z,49.23
2019-04-26T21:37:11.412Z,49.21
2019-04-26T21:40:10.362Z,49.20
2019-04-26T21:42:45.295Z,50.13
2019-04-26T21:45:21.662Z,49.18
2019-04-26T21:47:54.291Z,48.73
2019-04-26T21:50:29.174Z,48.70
2019-04-26T21:53:05.065Z,48.64
2019-04-26T21:55:38.658Z,48.69
2019-04-26T21:58:11.082Z,48.66
2019-04-26T22:01:00.329Z,48.51
2019-04-26T22:03:34.194Z,48.46
2019-04-26T22:06:07.250Z,48.58
2019-04-26T22:08:48.754Z,48.97
2019-04-26T22:11:23.255Z,49.17
2019-04-26T22:14:21.276Z,49.20
2019-04-26T22:17:13.557Z,49.23
2019-04-26T22:20:06.641Z,49.33
2019-04-26T22:22:49.726Z,49.58
2019-04-26T22:25:25.449Z,49.77
2019-04-26T22:28:00.473Z,49.97
2019-04-26T22:30:33.192Z,49.94
2019-04-26T22:33:06.223Z,50.31
2019-04-26T22:35:39.152Z,50.91
2019-04-26T22:38:12.208Z,51.45
2019-04-26T22:40:48.615Z,51.31
2019-04-26T22:43:29.677Z,51.61
2019-04-26T22:46:28.866Z,52.78
2019-04-26T22:49:01.314Z,53.23
2019-04-26T22:51:37.237Z,53.89
2019-04-26T22:54:08.381Z,54.59
2019-04-26T22:56:41.206Z,54.65
2019-04-26T22:59:14.160Z,55.91
2019-04-26T23:01:48.758Z,56.24
2019-04-26T23:04:25.322Z,56.17
2019-04-26T23:06:56.903Z,56.36
2019-04-26T23:09:30.940Z,56.94
2019-04-26T23:12:24.781Z,57.20
2019-04-26T23:15:30.198Z,57.61
2019-04-26T23:18:16.838Z,57.68
2019-04-26T23:20:53.780Z,58.35
2019-04-26T23:23:26.890Z,58.26
2019-04-26T23:26:02.260Z,59.04
2019-04-26T23:28:36.990Z,59.39
2019-04-26T23:31:09.286Z,60.48
2019-04-26T23:33:42.931Z,61.47
2019-04-26T23:36:18.362Z,62.33
2019-04-26T23:38:50.397Z,62.12
2019-04-26T23:41:23.688Z,53.35
2019-04-26T23:44:02.931Z,54.18
2019-04-26T23:46:33.013Z,56.61
2019-04-26T23:49:06.150Z,58.33
2019-04-26T23:51:43.051Z,59.94
2019-04-26T23:54:13.775Z,60.77
2019-04-26T23:56:47.735Z,61.48
2019-04-26T23:59:21.157Z,62.40
